Decoded Metar for UACK (KOKSHETAU in KAZAKHSTAN) (IATA:N/A) | Meteo·Mobile Aviation Weather
aviador You're here:

UACK Decoded Metar

KOKSHETAU in KAZAKHSTAN
Report Time2019-10-21 08:30:00
UTC Time2019-10-21 08:36:36
Flight Rules vfr VFR
Wind220° at 12 kt
W.Decomp.*RWY 20: 11.9 kt HW 1.9 kt RCW
Visibility9999 m
Phenomena:N/A
Clouds:N/A
Expected CloudBase > 1,600 ft AGL from Temp-Dew spread
CeilingNone
Temp-2°C (ISA -0)
Dew Point-6°C (74% RH)
AAT-9.0°C
QNH1034 hPa
Density Alt7,671 ft
Elevation8,356 ft
Report Wrong Elevation
Raw Report
METAR UACK 210830Z 22006MPS CAVOK M02/M06 Q1034 R20/990545 NOSIG RMK
QFE751/1002=

Extra information for UACK:More info

Metar Taf Metar & Taf Last 4 Metars F.Rules Stats Wind Profile Meteogram Temp Stats Airport Information Weather charts Add Link Nearby VenuesMetar ALERT Operation Metar Decoded Social comments